Time;durP1;ratioP1;P1;durP2;ratioP2;P2;SDS_P1;SDS_P2;PMS_P1;PMS_P2;Temp;Humidity;BMP_temperature;BMP_pressure;BME280_temperature;BME280_humidity;BME280_pressure;Samples;Min_cycle;Max_cycle;Signal;HPM_P1;HPM_P2
2022/05/09 00:01:59;;;;;;;11.60;2.47;;;12.90;75.10;;;;;;5091106;28;20036;-68
2022/05/09 00:04:25;;;;;;;13.77;3.28;;;12.80;74.70;;;;;;5098216;28;20046;-69
2022/05/09 00:06:50;;;;;;;6.28;2.63;;;12.80;74.70;;;;;;5098036;28;20140;-69
2022/05/09 00:09:17;;;;;;;14.00;2.60;;;12.80;74.70;;;;;;5111900;28;20451;-70
2022/05/09 00:11:44;;;;;;;16.15;2.70;;;12.70;74.70;;;;;;5109563;28;20083;-70
2022/05/09 00:14:10;;;;;;;12.13;2.50;;;12.70;75.00;;;;;;5108993;28;20719;-69
2022/05/09 00:16:35;;;;;;;11.82;2.50;;;12.70;75.10;;;;;;5111362;28;20035;-69
2022/05/09 00:19:09;;;;;;;8.13;2.78;;;12.70;75.20;;;;;;5110953;28;20107;-69
2022/05/09 00:21:38;;;;;;;6.47;2.47;;;12.70;75.50;;;;;;5111271;28;20113;-70
2022/05/09 00:24:04;;;;;;;15.65;2.63;;;12.60;75.60;;;;;;5111434;28;20031;-69
2022/05/09 00:26:31;;;;;;;8.10;1.95;;;12.60;75.60;;;;;;5110701;28;20546;-69
2022/05/09 00:29:10;;;;;;;18.27;3.38;;;12.60;75.80;;;;;;5111190;28;20019;-70
2022/05/09 00:31:37;;;;;;;7.82;2.20;;;12.50;75.90;;;;;;5095291;28;20427;-70
2022/05/09 00:34:03;;;;;;;14.20;2.58;;;12.50;76.00;;;;;;5099214;28;20035;-69
2022/05/09 00:36:30;;;;;;;5.22;1.95;;;12.50;76.00;;;;;;5108594;28;20040;-69
2022/05/09 00:38:59;;;;;;;8.98;2.58;;;12.40;75.90;;;;;;5091099;28;20024;-69
2022/05/09 00:41:34;;;;;;;9.60;2.42;;;12.40;75.80;;;;;;5093701;28;20096;-69
2022/05/09 00:44:09;;;;;;;7.22;1.92;;;12.40;75.50;;;;;;5111359;28;20036;-69
2022/05/09 00:46:36;;;;;;;8.13;2.30;;;12.30;75.30;;;;;;5110061;28;20043;-69
2022/05/09 00:49:21;;;;;;;10.52;2.10;;;12.30;75.20;;;;;;5110835;28;20374;-69
2022/05/09 00:51:55;;;;;;;7.95;2.10;;;12.20;75.20;;;;;;5111140;28;20044;-69
2022/05/09 00:54:26;;;;;;;10.73;2.15;;;12.30;75.10;;;;;;5110055;28;20027;-69
2022/05/09 00:57:00;;;;;;;8.70;2.00;;;12.20;75.00;;;;;;5097999;28;20051;-69
2022/05/09 00:59:30;;;;;;;9.65;2.25;;;12.20;75.00;;;;;;5102487;28;20463;-69
2022/05/09 01:01:56;;;;;;;10.45;2.05;;;12.20;74.90;;;;;;5110481;28;20067;-69
2022/05/09 01:04:26;;;;;;;10.55;3.42;;;12.10;74.90;;;;;;5114863;28;20049;-69
2022/05/09 01:06:54;;;;;;;8.88;2.53;;;12.10;75.00;;;;;;5104528;28;20043;-69
2022/05/09 01:09:19;;;;;;;11.88;2.72;;;12.10;74.90;;;;;;5114081;28;20024;-69
2022/05/09 01:11:47;;;;;;;8.27;2.92;;;12.10;75.20;;;;;;5105210;28;20044;-69
2022/05/09 01:14:16;;;;;;;8.27;2.22;;;12.00;75.30;;;;;;5099545;28;20378;-69
2022/05/09 01:16:43;;;;;;;13.35;3.10;;;12.00;75.30;;;;;;5107856;27;20036;-69
2022/05/09 01:19:28;;;;;;;12.35;3.17;;;11.90;75.30;;;;;;5107556;28;20035;-69
2022/05/09 01:21:54;;;;;;;7.53;2.45;;;11.90;75.20;;;;;;5095159;28;20036;-69
2022/05/09 01:24:23;;;;;;;23.25;3.53;;;11.90;75.30;;;;;;5112586;28;20038;-69
2022/05/09 01:26:49;;;;;;;26.58;3.33;;;11.80;75.60;;;;;;5114526;28;20046;-69
2022/05/09 01:29:21;;;;;;;7.35;2.25;;;11.80;75.80;;;;;;5109741;28;20034;-69
2022/05/09 01:31:51;;;;;;;9.82;3.00;;;11.80;76.00;;;;;;5104912;28;20561;-69
2022/05/09 01:34:17;;;;;;;17.58;3.40;;;11.80;76.10;;;;;;5114572;28;20034;-69
2022/05/09 01:36:49;;;;;;;9.00;2.78;;;11.70;76.30;;;;;;5109573;28;20028;-69
2022/05/09 01:39:14;;;;;;;12.02;3.05;;;11.70;76.50;;;;;;5094081;28;20085;-69
2022/05/09 01:41:43;;;;;;;8.35;2.70;;;11.70;76.60;;;;;;5112429;28;20039;-69
2022/05/09 01:44:11;;;;;;;16.00;2.95;;;11.70;76.90;;;;;;5113413;28;20111;-69
2022/05/09 01:49:34;;;;;;;16.20;3.45;;;11.60;77.30;;;;;;5113155;28;20069;-70
2022/05/09 01:52:13;;;;;;;11.63;3.13;;;11.60;77.50;;;;;;5114104;27;20044;-69
2022/05/09 01:54:41;;;;;;;11.55;3.45;;;11.60;77.40;;;;;;5113810;28;20106;-69
2022/05/09 01:57:07;;;;;;;6.70;2.58;;;11.50;77.30;;;;;;5113125;28;20100;-69
2022/05/09 01:59:37;;;;;;;10.50;2.80;;;11.50;77.30;;;;;;5100154;28;20108;-69
2022/05/09 02:02:09;;;;;;;12.43;2.95;;;11.50;77.60;;;;;;5099842;28;20106;-67
2022/05/09 02:04:40;;;;;;;9.82;2.85;;;11.50;77.50;;;;;;5112686;28;20479;-69
2022/05/09 02:07:16;;;;;;;7.90;2.60;;;11.40;77.40;;;;;;5112173;28;20035;-69
2022/05/09 02:09:45;;;;;;;6.03;2.80;;;11.50;77.30;;;;;;5101313;28;20040;-69
2022/05/09 02:12:11;;;;;;;9.30;2.65;;;11.40;77.10;;;;;;5112039;28;20506;-69
2022/05/09 02:14:37;;;;;;;14.68;3.10;;;11.40;77.10;;;;;;5113628;28;20034;-69
2022/05/09 02:17:05;;;;;;;11.95;2.78;;;11.30;77.00;;;;;;5111127;28;20027;-69
2022/05/09 02:19:31;;;;;;;9.48;2.80;;;11.30;76.90;;;;;;5102013;28;20497;-69
2022/05/09 02:21:57;;;;;;;12.68;2.65;;;11.30;77.00;;;;;;5096779;28;20483;-70
2022/05/09 02:24:23;;;;;;;14.73;2.85;;;11.30;77.00;;;;;;5105331;28;20028;-69
2022/05/09 02:26:51;;;;;;;15.40;2.88;;;11.30;76.90;;;;;;5093983;28;20055;-69
2022/05/09 02:29:17;;;;;;;15.10;3.13;;;11.30;76.90;;;;;;5092082;28;20102;-69
2022/05/09 02:31:42;;;;;;;14.90;3.08;;;11.30;77.20;;;;;;5091026;28;20068;-69
2022/05/09 02:34:11;;;;;;;11.80;3.42;;;11.30;77.50;;;;;;5091934;28;20118;-70
2022/05/09 02:36:36;;;;;;;15.40;3.33;;;11.20;77.80;;;;;;5099583;28;20467;-69
2022/05/09 02:39:03;;;;;;;16.52;3.20;;;11.20;78.70;;;;;;5093867;28;20046;-69
2022/05/09 02:41:30;;;;;;;10.00;2.65;;;11.20;78.30;;;;;;5103060;28;20032;-69
2022/05/09 02:43:55;;;;;;;12.82;2.67;;;11.10;78.40;;;;;;5100811;28;20020;-70
2022/05/09 02:46:22;;;;;;;12.57;3.03;;;11.10;78.50;;;;;;5094993;28;20036;-71
2022/05/09 02:48:48;;;;;;;22.65;2.80;;;11.10;78.50;;;;;;5102919;28;20035;-69
2022/05/09 02:51:13;;;;;;;17.77;3.42;;;11.00;78.50;;;;;;5100424;28;20149;-69
2022/05/09 02:53:40;;;;;;;13.77;2.92;;;11.00;78.60;;;;;;5099861;28;20048;-69
2022/05/09 02:56:07;;;;;;;8.93;2.65;;;11.00;78.60;;;;;;5109592;28;20070;-69
2022/05/09 02:58:33;;;;;;;13.18;2.60;;;11.00;78.70;;;;;;5112591;28;20032;-69
2022/05/09 03:00:59;;;;;;;12.80;2.80;;;10.90;78.80;;;;;;5111521;28;20055;-69
2022/05/09 03:06:09;;;;;;;11.80;3.05;;;10.90;79.00;;;;;;5097257;28;20089;-69
2022/05/09 03:08:36;;;;;;;7.35;2.50;;;10.90;79.00;;;;;;5095787;28;20455;-69
2022/05/09 03:11:01;;;;;;;7.22;1.70;;;10.90;79.20;;;;;;5096780;28;20078;-69
2022/05/09 03:13:27;;;;;;;3.55;1.60;;;10.80;79.50;;;;;;5098690;28;20052;-69
2022/05/09 03:15:53;;;;;;;5.63;2.05;;;10.80;79.80;;;;;;5100481;28;20056;-69
2022/05/09 03:18:25;;;;;;;6.32;1.83;;;10.80;79.90;;;;;;5098692;28;20376;-69
2022/05/09 03:20:51;;;;;;;2.92;1.60;;;10.70;80.00;;;;;;5099311;28;20020;-69
2022/05/09 03:23:18;;;;;;;1.95;1.48;;;10.70;80.10;;;;;;5096090;28;20043;-69
2022/05/09 03:25:44;;;;;;;4.35;1.80;;;10.70;80.30;;;;;;5099923;28;20031;-69
2022/05/09 03:28:13;;;;;;;7.40;1.63;;;10.70;80.70;;;;;;5097309;28;20041;-69
2022/05/09 03:30:47;;;;;;;7.82;2.45;;;10.70;81.10;;;;;;5096171;28;20028;-69
2022/05/09 03:33:14;;;;;;;8.60;2.30;;;10.60;81.10;;;;;;5103695;28;20080;-69
2022/05/09 03:35:40;;;;;;;8.45;2.20;;;10.60;81.20;;;;;;5111434;28;20032;-69
2022/05/09 03:38:06;;;;;;;7.22;2.55;;;10.60;81.40;;;;;;5105996;28;20580;-69
2022/05/09 03:40:31;;;;;;;8.75;2.47;;;10.60;81.50;;;;;;5104423;28;20035;-69
2022/05/09 03:42:59;;;;;;;6.13;2.50;;;10.60;81.60;;;;;;5110873;28;20023;-69
2022/05/09 03:45:25;;;;;;;7.75;2.50;;;10.50;81.60;;;;;;5111435;28;20051;-69
2022/05/09 03:47:51;;;;;;;13.77;3.08;;;10.50;81.80;;;;;;5111224;28;20023;-69
2022/05/09 03:50:20;;;;;;;8.07;2.50;;;10.50;81.90;;;;;;5110851;28;20031;-69
2022/05/09 03:52:49;;;;;;;8.57;2.25;;;10.40;82.10;;;;;;5111818;28;20047;-69
2022/05/09 03:55:14;;;;;;;5.88;2.70;;;10.40;82.30;;;;;;5111459;28;20078;-70
2022/05/09 03:57:54;;;;;;;6.78;2.60;;;10.40;82.40;;;;;;5110943;28;20487;-69
2022/05/09 04:00:25;;;;;;;6.63;2.28;;;10.40;82.60;;;;;;5111619;28;20023;-69
2022/05/09 04:02:51;;;;;;;7.72;2.67;;;10.40;82.70;;;;;;5111432;28;20090;-69
2022/05/09 04:05:17;;;;;;;11.60;2.50;;;10.40;82.90;;;;;;5097170;28;20072;-69
2022/05/09 04:07:45;;;;;;;8.13;2.05;;;10.30;83.00;;;;;;5111261;28;20027;-69
2022/05/09 04:10:13;;;;;;;6.53;2.30;;;10.40;83.10;;;;;;5110732;28;20080;-69
2022/05/09 04:12:40;;;;;;;6.43;2.67;;;10.40;83.00;;;;;;5111274;28;20039;-69
2022/05/09 04:17:52;;;;;;;5.45;2.65;;;10.30;82.80;;;;;;5099601;28;20043;-69
2022/05/09 04:20:18;;;;;;;4.85;2.33;;;10.30;82.80;;;;;;5095172;28;20036;-69
2022/05/09 04:22:44;;;;;;;4.43;2.17;;;10.30;82.80;;;;;;5100395;28;20028;-69
2022/05/09 04:25:12;;;;;;;8.30;3.08;;;10.30;82.90;;;;;;5110676;28;20111;-69
2022/05/09 04:27:38;;;;;;;16.02;4.13;;;10.20;82.90;;;;;;5111376;28;20398;-69
2022/05/09 04:30:07;;;;;;;8.90;3.72;;;10.20;82.90;;;;;;5097899;28;20100;-69
2022/05/09 04:32:33;;;;;;;12.00;4.28;;;10.20;82.90;;;;;;5110304;28;20039;-69
2022/05/09 04:34:59;;;;;;;7.95;3.10;;;10.30;82.90;;;;;;5111250;28;20378;-69
2022/05/09 04:37:25;;;;;;;8.40;3.25;;;10.20;82.80;;;;;;5115241;28;20027;-69
2022/05/09 04:39:51;;;;;;;11.27;3.13;;;10.20;82.70;;;;;;5101250;28;20027;-69
2022/05/09 04:42:16;;;;;;;10.65;3.47;;;10.20;82.70;;;;;;5114320;28;20039;-69
2022/05/09 04:44:43;;;;;;;10.45;3.45;;;10.20;82.60;;;;;;5101621;28;20371;-70
2022/05/09 04:47:09;;;;;;;14.75;3.25;;;10.20;82.50;;;;;;5114456;28;20348;-68
2022/05/09 04:49:34;;;;;;;9.40;3.47;;;10.20;82.40;;;;;;5111729;27;20085;-70
2022/05/09 04:52:00;;;;;;;11.05;3.78;;;10.20;82.30;;;;;;5113056;28;20036;-69
2022/05/09 04:54:26;;;;;;;12.48;3.50;;;10.10;82.30;;;;;;5113639;28;20546;-70
2022/05/09 04:56:51;;;;;;;10.52;3.50;;;10.20;82.30;;;;;;5113955;28;20059;-69
2022/05/09 04:59:17;;;;;;;13.48;3.90;;;10.20;82.40;;;;;;5113186;28;20030;-68
2022/05/09 05:01:44;;;;;;;6.97;3.28;;;10.20;82.50;;;;;;5106835;28;20024;-68
2022/05/09 05:04:10;;;;;;;11.57;3.33;;;10.20;82.70;;;;;;5105708;28;20055;-70
2022/05/09 05:06:36;;;;;;;8.85;3.60;;;10.20;82.90;;;;;;5096695;28;20028;-68
2022/05/09 05:09:02;;;;;;;7.65;3.95;;;10.10;83.20;;;;;;5101265;28;20093;-69
2022/05/09 05:11:28;;;;;;;7.63;3.65;;;10.20;83.50;;;;;;5098375;28;20050;-67
2022/05/09 05:13:54;;;;;;;8.88;3.30;;;10.20;83.80;;;;;;5107296;28;20031;-67
2022/05/09 05:16:59;;;;;;;7.68;3.53;;;10.20;84.10;;;;;;5109791;28;20092;-67
2022/05/09 05:19:05;;;;;;;12.75;3.50;;;10.20;84.60;;;;;;5109403;28;20020;-67
2022/05/09 05:21:31;;;;;;;12.40;4.88;;;10.20;84.90;;;;;;5104203;28;20374;-67
2022/05/09 05:23:56;;;;;;;13.00;3.85;;;10.30;86.10;;;;;;5092819;28;20028;-67
2022/05/09 05:26:22;;;;;;;14.80;4.30;;;10.30;86.00;;;;;;5100244;28;20046;-69
2022/05/09 05:28:51;;;;;;;12.75;4.28;;;10.30;86.50;;;;;;5100577;28;20542;-71
2022/05/09 05:31:18;;;;;;;15.25;5.22;;;10.30;87.00;;;;;;5102560;28;20074;-69
2022/05/09 05:33:45;;;;;;;14.82;4.78;;;10.30;87.30;;;;;;5113356;28;20032;-67
2022/05/09 05:36:11;;;;;;;20.88;5.78;;;10.30;87.60;;;;;;5099721;28;20023;-68
2022/05/09 05:38:40;;;;;;;15.32;4.20;;;10.40;88.00;;;;;;5106182;28;20032;-68
2022/05/09 05:41:05;;;;;;;15.50;3.92;;;10.40;88.00;;;;;;5106641;28;20030;-70
2022/05/09 05:43:31;;;;;;;22.00;4.60;;;10.50;88.40;;;;;;5106165;28;20016;-81
2022/05/09 05:45:57;;;;;;;13.43;4.18;;;10.60;89.10;;;;;;5099613;28;20028;-68
2022/05/09 05:48:24;;;;;;;14.98;5.05;;;10.60;88.90;;;;;;5105660;28;20042;-67
2022/05/09 05:50:51;;;;;;;14.10;4.40;;;10.60;89.20;;;;;;5104749;28;20039;-68
2022/05/09 05:53:16;;;;;;;17.95;4.07;;;10.70;89.50;;;;;;5099383;28;20028;-68
2022/05/09 05:55:45;;;;;;;8.98;2.85;;;10.70;89.50;;;;;;5113256;27;20051;-68
2022/05/09 05:58:11;;;;;;;6.78;2.88;;;10.70;89.40;;;;;;5113350;28;20047;-68
2022/05/09 06:00:36;;;;;;;17.05;3.53;;;10.80;88.90;;;;;;5113145;28;20027;-68
2022/05/09 06:03:02;;;;;;;16.33;4.68;;;10.90;88.50;;;;;;5099927;28;20517;-67
2022/05/09 06:05:28;;;;;;;22.65;3.30;;;10.90;89.00;;;;;;5112971;28;20027;-68
2022/05/09 06:07:55;;;;;;;12.35;4.00;;;10.90;89.10;;;;;;5112283;28;20038;-67
2022/05/09 06:10:22;;;;;;;9.90;3.00;;;11.00;90.10;;;;;;5112375;28;20467;-68
2022/05/09 06:12:48;;;;;;;9.10;3.08;;;11.10;90.10;;;;;;5099864;28;20471;-68
2022/05/09 06:15:34;;;;;;;6.20;1.80;;;11.10;89.30;;;;;;5113393;28;20039;-68
2022/05/09 06:18:03;;;;;;;12.82;3.30;;;11.20;89.30;;;;;;5112815;28;20081;-67
2022/05/09 06:20:31;;;;;;;11.60;3.97;;;11.30;88.50;;;;;;5113252;28;20023;-68
2022/05/09 06:22:59;;;;;;;7.13;2.90;;;11.30;89.40;;;;;;5113321;28;20033;-68
2022/05/09 06:25:26;;;;;;;8.00;3.55;;;11.30;89.40;;;;;;5112725;28;20031;-67
2022/05/09 06:27:53;;;;;;;13.05;4.53;;;11.40;89.60;;;;;;5113245;28;20023;-67
2022/05/09 06:30:21;;;;;;;18.15;3.63;;;11.40;90.10;;;;;;5107212;28;20043;-68
2022/05/09 06:32:47;;;;;;;19.23;4.43;;;11.50;90.30;;;;;;5105614;28;20050;-68
2022/05/09 06:35:20;;;;;;;13.20;4.50;;;11.50;90.50;;;;;;5113023;28;20126;-67
2022/05/09 06:37:46;;;;;;;23.98;5.07;;;11.60;90.50;;;;;;5098421;28;20039;-68
2022/05/09 06:40:12;;;;;;;19.98;5.25;;;11.70;90.40;;;;;;5092204;28;20058;-68
2022/05/09 06:42:39;;;;;;;13.60;4.43;;;11.80;90.80;;;;;;5093367;28;20529;-68
2022/05/09 06:45:06;;;;;;;16.17;6.22;;;11.90;90.90;;;;;;5100963;28;20033;-68
2022/05/09 06:47:32;;;;;;;23.65;5.57;;;12.00;91.20;;;;;;5098852;28;20072;-68
2022/05/09 06:50:00;;;;;;;15.15;4.28;;;12.00;91.50;;;;;;5113187;28;20375;-68
2022/05/09 06:52:25;;;;;;;25.75;5.90;;;12.10;91.50;;;;;;5109522;28;20071;-68
2022/05/09 06:54:51;;;;;;;23.17;4.78;;;12.20;91.60;;;;;;5101807;28;20412;-66
2022/05/09 06:57:17;;;;;;;20.15;4.95;;;12.30;91.80;;;;;;5112519;28;20471;-65
2022/05/09 06:59:42;;;;;;;16.40;3.72;;;12.30;91.40;;;;;;5112066;28;20027;-68
2022/05/09 07:02:12;;;;;;;16.80;4.28;;;12.40;91.20;;;;;;5112105;28;20352;-68
2022/05/09 07:04:39;;;;;;;16.17;4.05;;;12.40;91.00;;;;;;5111380;28;20035;-68
2022/05/09 07:07:06;;;;;;;18.00;4.65;;;12.50;90.80;;;;;;5110640;28;20379;-68
2022/05/09 07:09:32;;;;;;;17.80;4.50;;;12.60;90.90;;;;;;5112444;28;20036;-69
2022/05/09 07:11:57;;;;;;;17.40;5.13;;;12.60;91.00;;;;;;5112716;28;20047;-68
2022/05/09 07:14:23;;;;;;;15.80;4.45;;;12.70;91.10;;;;;;5098465;28;20141;-69
2022/05/09 07:16:49;;;;;;;20.98;4.97;;;12.80;91.10;;;;;;5111953;28;20035;-69
2022/05/09 07:19:16;;;;;;;18.05;4.72;;;12.90;91.10;;;;;;5091530;28;20028;-69
2022/05/09 07:21:42;;;;;;;10.48;3.78;;;13.00;91.00;;;;;;5091293;28;20031;-69
2022/05/09 07:24:08;;;;;;;18.02;4.88;;;13.00;90.80;;;;;;5104370;28;20154;-68
2022/05/09 07:26:35;;;;;;;16.20;3.97;;;13.10;90.80;;;;;;5093326;28;20107;-69
2022/05/09 07:29:00;;;;;;;15.05;2.90;;;13.20;90.60;;;;;;5111536;28;20028;-68
2022/05/09 07:31:26;;;;;;;9.70;3.85;;;13.20;90.30;;;;;;5109958;28;20045;-68
2022/05/09 07:33:56;;;;;;;10.75;3.90;;;13.20;90.00;;;;;;5091794;28;20028;-68
2022/05/09 07:36:25;;;;;;;25.88;4.53;;;13.30;90.00;;;;;;5094033;28;20043;-68
2022/05/09 07:38:51;;;;;;;18.45;4.53;;;13.40;90.00;;;;;;5102549;28;20540;-69
2022/05/09 07:41:16;;;;;;;11.90;4.30;;;13.50;89.90;;;;;;5093979;28;20028;-69
2022/05/09 07:43:42;;;;;;;12.95;4.50;;;13.50;89.70;;;;;;5111803;28;20487;-68
2022/05/09 07:46:07;;;;;;;12.18;3.88;;;13.60;89.70;;;;;;5098360;28;20047;-69
2022/05/09 07:48:34;;;;;;;14.23;4.40;;;13.70;89.50;;;;;;5111151;28;20026;-68
2022/05/09 07:51:01;;;;;;;13.95;4.25;;;13.70;89.30;;;;;;5111345;28;20390;-69
2022/05/09 07:53:31;;;;;;;10.15;3.47;;;13.80;89.10;;;;;;5111662;28;20046;-68
2022/05/09 07:56:00;;;;;;;14.68;4.35;;;13.90;89.00;;;;;;5110839;28;20413;-69
2022/05/09 07:58:26;;;;;;;11.32;4.28;;;13.90;88.90;;;;;;5111756;28;20031;-68
2022/05/09 08:00:53;;;;;;;12.73;3.40;;;14.00;88.10;;;;;;5111186;28;20027;-69
2022/05/09 08:03:21;;;;;;;13.95;3.53;;;14.10;87.30;;;;;;5110659;28;20062;-69
2022/05/09 08:05:52;;;;;;;12.73;3.35;;;14.10;86.90;;;;;;5109804;28;20424;-68
2022/05/09 08:08:18;;;;;;;15.10;4.00;;;14.20;86.60;;;;;;5111468;28;20035;-69
2022/05/09 08:10:44;;;;;;;12.10;3.33;;;14.30;86.70;;;;;;5110115;28;20093;-69
2022/05/09 08:13:12;;;;;;;18.92;3.95;;;14.30;85.40;;;;;;5101449;28;20044;-69
2022/05/09 08:15:38;;;;;;;12.45;3.75;;;14.30;85.40;;;;;;5107975;28;20032;-69
2022/05/09 08:18:04;;;;;;;10.10;3.25;;;14.30;85.20;;;;;;5110087;28;20055;-68
2022/05/09 08:20:33;;;;;;;11.02;3.53;;;14.40;85.00;;;;;;5111043;28;20020;-68
2022/05/09 08:23:08;;;;;;;11.90;3.95;;;14.50;84.70;;;;;;5111490;28;20035;-69
2022/05/09 08:25:34;;;;;;;17.85;3.92;;;14.60;84.50;;;;;;5110253;28;20043;-69
2022/05/09 08:28:04;;;;;;;14.98;3.90;;;14.60;84.20;;;;;;5110958;28;20506;-69
2022/05/09 08:30:33;;;;;;;16.08;4.15;;;14.70;83.90;;;;;;5110244;28;20119;-69
2022/05/09 08:33:05;;;;;;;16.02;3.67;;;14.70;83.80;;;;;;5111333;28;20039;-69
2022/05/09 08:35:31;;;;;;;11.38;3.10;;;14.80;84.00;;;;;;5111167;28;20516;-69
2022/05/09 08:37:57;;;;;;;12.13;4.50;;;14.90;83.30;;;;;;5110333;28;20032;-69
2022/05/09 08:40:36;;;;;;;8.77;3.33;;;15.00;83.10;;;;;;5110150;28;20157;-68
2022/05/09 08:43:14;;;;;;;10.13;3.38;;;15.10;82.30;;;;;;5110870;28;20034;-69
2022/05/09 08:45:47;;;;;;;19.00;4.53;;;15.10;80.90;;;;;;5097889;28;20510;-71
2022/05/09 08:48:34;;;;;;;13.07;3.35;;;15.20;80.90;;;;;;5096893;28;20076;-71
2022/05/09 08:51:12;;;;;;;13.48;3.08;;;15.30;80.50;;;;;;5097963;28;20380;-72
2022/05/09 08:53:41;;;;;;;12.98;3.10;;;15.30;79.80;;;;;;5097861;28;20039;-72
2022/05/09 08:56:13;;;;;;;11.63;3.30;;;15.40;79.60;;;;;;5104490;28;20628;-72
2022/05/09 08:58:49;;;;;;;11.65;3.58;;;15.40;79.40;;;;;;5101240;28;20088;-71
2022/05/09 09:01:31;;;;;;;12.25;3.22;;;15.40;79.60;;;;;;5101659;28;20540;-72
2022/05/09 09:04:04;;;;;;;13.57;3.55;;;15.50;78.60;;;;;;5099849;28;20051;-72
2022/05/09 09:07:03;;;;;;;12.45;3.38;;;15.50;77.70;;;;;;5098452;28;20139;-72
2022/05/09 09:09:44;;;;;;;12.60;3.30;;;15.60;77.60;;;;;;5094984;28;20414;-71
2022/05/09 09:12:34;;;;;;;6.00;2.90;;;15.70;77.40;;;;;;5097925;28;20036;-72
2022/05/09 09:15:09;;;;;;;16.67;3.42;;;15.80;76.00;;;;;;5096138;28;20467;-72
2022/05/09 09:17:53;;;;;;;11.27;3.38;;;15.90;76.30;;;;;;5089686;28;20024;-71
2022/05/09 09:20:32;;;;;;;12.52;3.75;;;16.00;76.70;;;;;;5093368;28;20074;-72
2022/05/09 09:23:20;;;;;;;11.95;3.17;;;16.10;76.10;;;;;;5096868;28;20508;-72
2022/05/09 09:26:00;;;;;;;8.70;2.63;;;16.10;75.70;;;;;;5098772;28;20111;-72
2022/05/09 09:28:35;;;;;;;10.10;2.67;;;16.20;75.10;;;;;;5099191;28;20112;-71
2022/05/09 09:31:05;;;;;;;8.32;2.65;;;16.30;75.40;;;;;;5102472;27;20086;-74
2022/05/09 09:33:33;;;;;;;7.25;2.45;;;16.30;74.00;;;;;;5099522;28;20024;-72
2022/05/09 09:36:12;;;;;;;14.98;3.38;;;16.40;73.80;;;;;;5104147;28;20064;-72
2022/05/09 09:38:45;;;;;;;9.65;3.13;;;16.40;73.70;;;;;;5102584;28;20032;-72
2022/05/09 09:41:15;;;;;;;15.00;3.15;;;16.50;72.60;;;;;;5100219;28;20024;-72
2022/05/09 09:43:41;;;;;;;15.57;3.63;;;16.60;72.80;;;;;;5100896;28;20032;-72
2022/05/09 09:46:07;;;;;;;14.85;2.83;;;16.70;72.60;;;;;;5103129;28;20620;-72
2022/05/09 09:48:34;;;;;;;8.15;2.80;;;16.70;72.70;;;;;;5108945;28;20494;-72
2022/05/09 09:51:01;;;;;;;13.95;2.90;;;16.80;72.40;;;;;;5097614;28;20040;-72
2022/05/09 09:53:32;;;;;;;11.73;2.58;;;16.90;71.30;;;;;;5104142;28;20123;-72
2022/05/09 09:56:08;;;;;;;13.63;2.97;;;16.90;71.10;;;;;;5107297;28;20032;-72
2022/05/09 09:58:38;;;;;;;11.90;3.10;;;17.00;70.70;;;;;;5093656;28;20118;-72
2022/05/09 10:01:21;;;;;;;9.23;3.00;;;17.10;70.50;;;;;;5100730;28;20115;-72
2022/05/09 10:04:02;;;;;;;8.30;3.03;;;17.10;69.90;;;;;;5105330;28;20479;-71
2022/05/09 10:06:28;;;;;;;10.15;2.90;;;17.20;69.50;;;;;;5099411;28;20027;-71
2022/05/09 10:08:59;;;;;;;12.57;3.08;;;17.20;68.50;;;;;;5098545;28;20521;-72
2022/05/09 10:11:28;;;;;;;9.05;3.20;;;17.20;68.50;;;;;;5101333;28;20138;-72
2022/05/09 10:14:03;;;;;;;4.35;1.13;;;17.30;67.70;;;;;;5102114;28;20563;-72
2022/05/09 10:16:30;;;;;;;13.48;2.50;;;17.30;68.90;;;;;;5111238;28;20046;-72
2022/05/09 10:18:58;;;;;;;13.70;3.47;;;17.30;68.50;;;;;;5105471;28;20032;-71
2022/05/09 10:24:47;;;;;;;14.13;2.80;;;17.40;68.20;;;;;;5106128;28;20032;-72
2022/05/09 10:27:28;;;;;;;13.73;3.00;;;17.50;67.50;;;;;;5112763;28;20485;-72
2022/05/09 10:29:56;;;;;;;8.90;2.80;;;17.60;67.00;;;;;;5099787;28;20032;-71
2022/05/09 10:32:36;;;;;;;7.13;2.22;;;17.70;68.10;;;;;;5099390;28;20036;-71
2022/05/09 10:35:14;;;;;;;8.45;2.75;;;17.70;68.00;;;;;;5112730;28;20032;-72
2022/05/09 10:38:05;;;;;;;13.60;2.80;;;17.80;67.80;;;;;;5111748;28;20509;-72
2022/05/09 10:40:44;;;;;;;9.30;2.83;;;18.00;68.00;;;;;;5112204;28;20371;-72
2022/05/09 10:43:15;;;;;;;8.48;2.78;;;18.00;68.00;;;;;;5112034;28;20027;-72
2022/05/09 10:45:47;;;;;;;9.45;2.65;;;18.10;68.30;;;;;;5102527;28;20035;-71
2022/05/09 10:48:19;;;;;;;10.07;3.30;;;18.20;68.10;;;;;;5095702;28;20035;-72
2022/05/09 10:51:04;;;;;;;5.70;1.95;;;18.20;67.70;;;;;;5099591;28;20027;-71
2022/05/09 10:53:44;;;;;;;11.93;3.17;;;18.30;67.90;;;;;;5096929;28;20048;-71
2022/05/09 10:56:22;;;;;;;22.85;3.22;;;18.30;69.20;;;;;;5106245;28;20356;-71
2022/05/09 10:59:03;;;;;;;11.23;2.83;;;18.40;68.20;;;;;;5105390;28;20056;-72
2022/05/09 11:01:38;;;;;;;11.80;3.10;;;18.40;67.60;;;;;;5107213;28;20036;-71
2022/05/09 11:04:04;;;;;;;10.98;2.70;;;18.50;66.80;;;;;;5111285;28;20521;-71
2022/05/09 11:07:06;;;;;;;5.30;2.20;;;18.50;65.50;;;;;;5099398;28;20056;-72
2022/05/09 11:10:03;;;;;;;12.75;2.60;;;18.60;68.20;;;;;;5098517;28;20055;-72
2022/05/09 11:12:52;;;;;;;8.45;2.65;;;18.50;70.10;;;;;;5102848;28;20028;-72
2022/05/09 11:15:45;;;;;;;4.53;1.95;;;18.50;69.00;;;;;;5095878;28;20136;-72
2022/05/09 11:18:29;;;;;;;8.07;2.80;;;18.60;71.40;;;;;;5112385;28;20410;-72
2022/05/09 11:21:19;;;;;;;6.32;1.77;;;18.40;71.50;;;;;;5091456;28;20036;-72
2022/05/09 11:23:54;;;;;;;10.35;2.88;;;18.40;72.70;;;;;;5108872;28;20119;-72
2022/05/09 11:26:39;;;;;;;8.73;2.45;;;18.30;70.50;;;;;;5090876;28;20490;-72
2022/05/09 11:29:10;;;;;;;7.57;2.72;;;18.40;69.00;;;;;;5110231;28;20356;-72
2022/05/09 11:32:02;;;;;;;15.88;3.05;;;18.50;67.60;;;;;;5098895;28;20040;-72
2022/05/09 11:34:36;;;;;;;9.77;2.58;;;18.70;67.30;;;;;;5101130;28;20376;-72
2022/05/09 11:37:35;;;;;;;8.50;2.63;;;18.80;67.10;;;;;;5111741;28;20065;-72
2022/05/09 11:40:21;;;;;;;9.75;2.28;;;18.80;67.10;;;;;;5111089;28;20530;-72
2022/05/09 11:43:29;;;;;;;11.55;2.70;;;19.00;65.90;;;;;;5104619;28;20027;-72
2022/05/09 11:46:17;;;;;;;9.35;2.90;;;19.10;66.80;;;;;;5111294;28;20440;-74
2022/05/09 12:22:39;;;;;;;7.55;2.60;;;18.20;74.00;;;;;;5105644;27;20330;-70
2022/05/09 12:25:10;;;;;;;16.85;2.70;;;19.40;71.40;;;;;;5088169;28;20024;-71
2022/05/09 12:28:13;;;;;;;8.65;2.63;;;19.50;70.20;;;;;;5073397;28;20438;-71
2022/05/09 12:30:56;;;;;;;3.38;1.23;;;19.60;69.30;;;;;;5073003;28;20032;-69
2022/05/09 12:33:36;;;;;;;7.30;2.42;;;19.70;72.80;;;;;;5077334;28;20040;-69
2022/05/09 12:36:20;;;;;;;11.25;3.00;;;19.70;71.40;;;;;;5087392;28;20024;-68
2022/05/09 12:38:49;;;;;;;7.82;2.25;;;19.70;69.30;;;;;;5088112;28;20044;-68
2022/05/09 12:41:18;;;;;;;7.63;2.15;;;19.80;68.80;;;;;;5086825;28;20091;-68
2022/05/09 12:43:52;;;;;;;8.20;2.30;;;19.90;70.80;;;;;;5087662;28;20058;-69
2022/05/09 12:46:25;;;;;;;11.02;2.40;;;20.00;71.00;;;;;;5071502;28;20815;-69
2022/05/09 12:48:52;;;;;;;8.67;2.30;;;20.00;70.70;;;;;;5068567;28;20158;-69
2022/05/09 12:51:19;;;;;;;5.53;2.00;;;20.10;71.40;;;;;;5069365;28;20829;-69
2022/05/09 12:53:45;;;;;;;9.45;2.30;;;20.20;70.80;;;;;;5068628;28;20106;-69
2022/05/09 12:56:20;;;;;;;7.75;2.17;;;20.20;71.30;;;;;;5066887;28;20163;-67
2022/05/09 12:59:08;;;;;;;8.55;2.25;;;20.30;70.60;;;;;;5074496;28;20031;-69
2022/05/09 13:01:35;;;;;;;13.13;2.25;;;20.40;69.20;;;;;;5080909;28;20075;-69
2022/05/09 13:04:04;;;;;;;7.68;2.60;;;20.60;73.10;;;;;;5073360;28;20036;-69
2022/05/09 13:06:38;;;;;;;4.53;1.80;;;20.60;71.50;;;;;;5087434;28;20096;-68
2022/05/09 13:09:17;;;;;;;;;;;20.60;72.80;;;;;;5084014;28;20101;-69
2022/05/09 13:11:48;;;;;;;8.00;1.48;;;20.60;74.70;;;;;;5087998;28;19959;-68
2022/05/09 13:14:19;;;;;;;3.95;1.70;;;20.70;73.30;;;;;;5082068;28;20391;-69
2022/05/09 13:17:00;;;;;;;6.32;2.20;;;20.70;72.80;;;;;;5066500;28;20039;-69
2022/05/09 13:19:27;;;;;;;1.73;0.85;;;20.70;70.50;;;;;;5076051;28;20029;-69
2022/05/09 13:21:55;;;;;;;6.97;2.00;;;20.80;73.80;;;;;;5082217;28;20059;-69
2022/05/09 13:24:30;;;;;;;14.10;2.05;;;20.90;71.50;;;;;;5060079;28;20036;-69
2022/05/09 13:26:59;;;;;;;2.78;1.52;;;21.00;69.60;;;;;;5073105;28;20040;-69
2022/05/09 13:29:29;;;;;;;9.07;2.03;;;21.10;71.10;;;;;;5073645;28;20052;-69
2022/05/09 13:31:56;;;;;;;9.18;1.92;;;21.20;71.80;;;;;;5056251;28;20029;-69
2022/05/09 13:34:29;;;;;;;11.45;2.70;;;21.30;72.50;;;;;;5064002;28;20056;-69
2022/05/09 13:36:55;;;;;;;9.63;2.60;;;21.40;72.10;;;;;;5073418;28;20020;-69
2022/05/09 13:39:25;;;;;;;5.85;1.60;;;21.40;72.20;;;;;;5073210;28;20053;-69
2022/05/09 13:41:51;;;;;;;10.00;1.92;;;21.50;74.00;;;;;;5060160;28;20093;-69
2022/05/09 13:44:21;;;;;;;8.30;2.13;;;21.60;74.00;;;;;;5072937;28;20033;-69